sensor_id;sensor_type;location;lat;lon;timestamp;pressure;altitude;pressure_sealevel;temperature;humidity
6829;BME280;17930;48.592;8.868;2023-07-20T00:01:29;96683.44;;;17.49;100.00
6829;BME280;17930;48.592;8.868;2023-07-20T00:03:56;96676.88;;;17.55;100.00
6829;BME280;17930;48.592;8.868;2023-07-20T00:06:23;96682.03;;;17.52;100.00
6829;BME280;17930;48.592;8.868;2023-07-20T00:08:52;96682.88;;;17.27;100.00
6829;BME280;17930;48.592;8.868;2023-07-20T00:11:21;96684.94;;;17.05;100.00
6829;BME280;17930;48.592;8.868;2023-07-20T00:13:47;96684.03;;;16.84;100.00
6829;BME280;17930;48.592;8.868;2023-07-20T00:16:14;96691.03;;;16.63;100.00
6829;BME280;17930;48.592;8.868;2023-07-20T00:18:41;96685.91;;;16.67;100.00
6829;BME280;17930;48.592;8.868;2023-07-20T00:21:07;96684.19;;;16.79;100.00
6829;BME280;17930;48.592;8.868;2023-07-20T00:23:34;96682.66;;;16.61;100.00
6829;BME280;17930;48.592;8.868;2023-07-20T00:26:01;96684.81;;;16.59;100.00
6829;BME280;17930;48.592;8.868;2023-07-20T00:28:29;96681.28;;;16.55;100.00
6829;BME280;17930;48.592;8.868;2023-07-20T00:30:55;96681.41;;;16.67;100.00
6829;BME280;17930;48.592;8.868;2023-07-20T00:33:22;96685.91;;;16.75;100.00
6829;BME280;17930;48.592;8.868;2023-07-20T00:35:49;96679.84;;;16.66;100.00
6829;BME280;17930;48.592;8.868;2023-07-20T00:38:15;96690.56;;;16.61;100.00
6829;BME280;17930;48.592;8.868;2023-07-20T00:40:42;96686.25;;;16.57;100.00
6829;BME280;17930;48.592;8.868;2023-07-20T00:43:09;96683.91;;;16.55;100.00
6829;BME280;17930;48.592;8.868;2023-07-20T00:45:37;96687.31;;;16.47;100.00
6829;BME280;17930;48.592;8.868;2023-07-20T00:48:06;96684.66;;;16.39;100.00
6829;BME280;17930;48.592;8.868;2023-07-20T00:50:33;96680.34;;;16.35;100.00
6829;BME280;17930;48.592;8.868;2023-07-20T00:53:02;96682.03;;;16.47;100.00
6829;BME280;17930;48.592;8.868;2023-07-20T00:55:31;96684.66;;;16.31;100.00
6829;BME280;17930;48.592;8.868;2023-07-20T00:57:59;96684.91;;;16.12;100.00
6829;BME280;17930;48.592;8.868;2023-07-20T01:00:26;96687.53;;;16.04;100.00
6829;BME280;17930;48.592;8.868;2023-07-20T01:02:54;96688.78;;;15.98;100.00
6829;BME280;17930;48.592;8.868;2023-07-20T01:05:21;96687.03;;;15.85;100.00
6829;BME280;17930;48.592;8.868;2023-07-20T01:07:57;96687.38;;;15.92;100.00
6829;BME280;17930;48.592;8.868;2023-07-20T01:10:27;96693.69;;;15.83;100.00
6829;BME280;17930;48.592;8.868;2023-07-20T01:12:56;96692.88;;;15.74;100.00
6829;BME280;17930;48.592;8.868;2023-07-20T01:15:24;96686.06;;;15.73;100.00
6829;BME280;17930;48.592;8.868;2023-07-20T01:17:50;96689.94;;;15.75;100.00
6829;BME280;17930;48.592;8.868;2023-07-20T01:20:20;96684.97;;;15.65;100.00
6829;BME280;17930;48.592;8.868;2023-07-20T01:25:54;96686.53;;;15.75;100.00
6829;BME280;17930;48.592;8.868;2023-07-20T01:28:48;96683.75;;;15.71;100.00
6829;BME280;17930;48.592;8.868;2023-07-20T01:31:24;96681.84;;;15.63;100.00
6829;BME280;17930;48.592;8.868;2023-07-20T01:33:54;96684.47;;;15.63;100.00
6829;BME280;17930;48.592;8.868;2023-07-20T01:36:22;96684.19;;;15.65;100.00
6829;BME280;17930;48.592;8.868;2023-07-20T01:38:49;96687.88;;;15.55;100.00
6829;BME280;17930;48.592;8.868;2023-07-20T01:41:18;96686.75;;;15.48;100.00
6829;BME280;17930;48.592;8.868;2023-07-20T01:43:44;96680.06;;;15.42;100.00
6829;BME280;17930;48.592;8.868;2023-07-20T01:46:11;96681.28;;;15.36;100.00
6829;BME280;17930;48.592;8.868;2023-07-20T01:48:39;96678.06;;;15.39;100.00
6829;BME280;17930;48.592;8.868;2023-07-20T01:51:06;96685.97;;;15.47;100.00
6829;BME280;17930;48.592;8.868;2023-07-20T01:53:32;96680.00;;;15.55;100.00
6829;BME280;17930;48.592;8.868;2023-07-20T01:55:59;96687.88;;;15.55;100.00
6829;BME280;17930;48.592;8.868;2023-07-20T01:58:26;96674.06;;;15.41;100.00
6829;BME280;17930;48.592;8.868;2023-07-20T02:00:52;96685.91;;;15.31;100.00
6829;BME280;17930;48.592;8.868;2023-07-20T02:03:19;96683.34;;;15.17;100.00
6829;BME280;17930;48.592;8.868;2023-07-20T02:05:48;96684.53;;;15.11;100.00
6829;BME280;17930;48.592;8.868;2023-07-20T02:08:15;96688.84;;;15.07;100.00
6829;BME280;17930;48.592;8.868;2023-07-20T02:10:45;96684.72;;;15.15;100.00
6829;BME280;17930;48.592;8.868;2023-07-20T02:13:12;96677.03;;;14.96;100.00
6829;BME280;17930;48.592;8.868;2023-07-20T02:15:38;96679.59;;;14.88;100.00
6829;BME280;17930;48.592;8.868;2023-07-20T02:18:05;96680.56;;;14.92;100.00
6829;BME280;17930;48.592;8.868;2023-07-20T02:20:32;96680.22;;;14.85;100.00
6829;BME280;17930;48.592;8.868;2023-07-20T02:23:00;96678.53;;;14.67;100.00
6829;BME280;17930;48.592;8.868;2023-07-20T02:25:27;96679.72;;;14.61;100.00
6829;BME280;17930;48.592;8.868;2023-07-20T02:27:56;96682.72;;;14.46;100.00
6829;BME280;17930;48.592;8.868;2023-07-20T02:30:23;96689.25;;;14.35;100.00
6829;BME280;17930;48.592;8.868;2023-07-20T02:32:50;96686.41;;;14.45;100.00
6829;BME280;17930;48.592;8.868;2023-07-20T02:35:17;96694.97;;;14.37;100.00
6829;BME280;17930;48.592;8.868;2023-07-20T02:37:43;96688.75;;;14.33;100.00
6829;BME280;17930;48.592;8.868;2023-07-20T02:40:11;96689.94;;;14.28;100.00
6829;BME280;17930;48.592;8.868;2023-07-20T02:42:38;96692.47;;;14.33;100.00
6829;BME280;17930;48.592;8.868;2023-07-20T02:45:06;96696.31;;;14.48;100.00
6829;BME280;17930;48.592;8.868;2023-07-20T02:47:32;96700.72;;;14.61;100.00
6829;BME280;17930;48.592;8.868;2023-07-20T02:49:59;96702.47;;;14.66;100.00
6829;BME280;17930;48.592;8.868;2023-07-20T02:52:26;96699.78;;;14.57;100.00
6829;BME280;17930;48.592;8.868;2023-07-20T02:54:54;96699.78;;;14.57;100.00
6829;BME280;17930;48.592;8.868;2023-07-20T02:57:23;96686.34;;;14.59;100.00
6829;BME280;17930;48.592;8.868;2023-07-20T02:59:49;96690.66;;;14.55;100.00
6829;BME280;17930;48.592;8.868;2023-07-20T03:02:16;96693.56;;;14.53;100.00
6829;BME280;17930;48.592;8.868;2023-07-20T03:04:42;96699.31;;;14.55;100.00
6829;BME280;17930;48.592;8.868;2023-07-20T03:07:09;96698.81;;;14.53;100.00
6829;BME280;17930;48.592;8.868;2023-07-20T03:09:36;96695.41;;;14.53;100.00
6829;BME280;17930;48.592;8.868;2023-07-20T03:12:03;96691.47;;;14.42;100.00
6829;BME280;17930;48.592;8.868;2023-07-20T03:14:32;96697.13;;;14.35;100.00
6829;BME280;17930;48.592;8.868;2023-07-20T03:16:59;96691.38;;;14.33;100.00
6829;BME280;17930;48.592;8.868;2023-07-20T03:19:25;96698.41;;;14.25;100.00
6829;BME280;17930;48.592;8.868;2023-07-20T03:21:53;96698.34;;;14.16;100.00
6829;BME280;17930;48.592;8.868;2023-07-20T03:24:20;96699.88;;;14.04;100.00
6829;BME280;17930;48.592;8.868;2023-07-20T03:26:46;96700.00;;;13.99;100.00
6829;BME280;17930;48.592;8.868;2023-07-20T03:29:13;96703.88;;;13.88;100.00
6829;BME280;17930;48.592;8.868;2023-07-20T03:31:42;96696.50;;;14.03;100.00
6829;BME280;17930;48.592;8.868;2023-07-20T03:34:09;96700.28;;;14.11;100.00
6829;BME280;17930;48.592;8.868;2023-07-20T03:36:36;96703.19;;;14.23;100.00
6829;BME280;17930;48.592;8.868;2023-07-20T03:39:02;96704.16;;;14.27;100.00
6829;BME280;17930;48.592;8.868;2023-07-20T03:41:29;96696.38;;;14.22;100.00
6829;BME280;17930;48.592;8.868;2023-07-20T03:43:56;96699.00;;;14.22;100.00
6829;BME280;17930;48.592;8.868;2023-07-20T03:46:23;96708.41;;;14.36;100.00
6829;BME280;17930;48.592;8.868;2023-07-20T03:48:51;96708.75;;;14.43;100.00
6829;BME280;17930;48.592;8.868;2023-07-20T03:51:17;96704.88;;;14.40;100.00
6829;BME280;17930;48.592;8.868;2023-07-20T03:53:44;96709.19;;;14.36;100.00
6829;BME280;17930;48.592;8.868;2023-07-20T03:56:11;96707.28;;;14.50;100.00
6829;BME280;17930;48.592;8.868;2023-07-20T03:58:37;96711.84;;;14.58;100.00
6829;BME280;17930;48.592;8.868;2023-07-20T04:01:04;96709.56;;;14.65;100.00
6829;BME280;17930;48.592;8.868;2023-07-20T04:03:31;96705.16;;;14.74;100.00
6829;BME280;17930;48.592;8.868;2023-07-20T04:05:58;96707.06;;;14.82;100.00
6829;BME280;17930;48.592;8.868;2023-07-20T04:08:25;96707.78;;;14.96;100.00
6829;BME280;17930;48.592;8.868;2023-07-20T04:10:55;96705.03;;;15.01;100.00
6829;BME280;17930;48.592;8.868;2023-07-20T04:13:22;96712.31;;;15.04;100.00
6829;BME280;17930;48.592;8.868;2023-07-20T04:15:49;96711.41;;;15.08;100.00
6829;BME280;17930;48.592;8.868;2023-07-20T04:18:16;96712.53;;;15.16;100.00
6829;BME280;17930;48.592;8.868;2023-07-20T04:20:42;96712.19;;;15.31;100.00
6829;BME280;17930;48.592;8.868;2023-07-20T04:23:10;96716.44;;;15.48;100.00
6829;BME280;17930;48.592;8.868;2023-07-20T04:25:39;96716.19;;;15.58;100.00
6829;BME280;17930;48.592;8.868;2023-07-20T04:28:06;96716.38;;;15.70;100.00
6829;BME280;17930;48.592;8.868;2023-07-20T04:30:35;96712.09;;;15.83;100.00
6829;BME280;17930;48.592;8.868;2023-07-20T04:33:03;96711.47;;;15.86;100.00
6829;BME280;17930;48.592;8.868;2023-07-20T04:35:46;96716.94;;;15.89;100.00
6829;BME280;17930;48.592;8.868;2023-07-20T04:38:15;96722.50;;;15.96;100.00
6829;BME280;17930;48.592;8.868;2023-07-20T04:40:47;96725.94;;;16.05;100.00
6829;BME280;17930;48.592;8.868;2023-07-20T04:43:14;96719.44;;;16.11;100.00
6829;BME280;17930;48.592;8.868;2023-07-20T04:45:40;96710.53;;;16.29;100.00
6829;BME280;17930;48.592;8.868;2023-07-20T04:48:09;96701.41;;;16.35;100.00
6829;BME280;17930;48.592;8.868;2023-07-20T04:50:37;96702.94;;;16.52;100.00
6829;BME280;17930;48.592;8.868;2023-07-20T04:53:04;96714.91;;;16.58;100.00
6829;BME280;17930;48.592;8.868;2023-07-20T04:55:32;96709.31;;;16.68;100.00
6829;BME280;17930;48.592;8.868;2023-07-20T04:58:00;96710.38;;;16.84;100.00
6829;BME280;17930;48.592;8.868;2023-07-20T05:00:26;96714.72;;;16.97;100.00
6829;BME280;17930;48.592;8.868;2023-07-20T05:02:53;96713.44;;;17.11;100.00
6829;BME280;17930;48.592;8.868;2023-07-20T05:05:20;96722.59;;;17.31;100.00
6829;BME280;17930;48.592;8.868;2023-07-20T05:07:47;96725.19;;;17.47;100.00
6829;BME280;17930;48.592;8.868;2023-07-20T05:10:13;96724.66;;;17.62;100.00
6829;BME280;17930;48.592;8.868;2023-07-20T05:12:42;96723.31;;;17.85;100.00
6829;BME280;17930;48.592;8.868;2023-07-20T05:15:09;96719.22;;;17.96;100.00
6829;BME280;17930;48.592;8.868;2023-07-20T05:17:36;96710.50;;;18.33;100.00
6829;BME280;17930;48.592;8.868;2023-07-20T05:20:03;96710.19;;;18.54;100.00
6829;BME280;17930;48.592;8.868;2023-07-20T05:22:30;96708.31;;;18.75;100.00
6829;BME280;17930;48.592;8.868;2023-07-20T05:24:57;96711.22;;;18.82;100.00
6829;BME280;17930;48.592;8.868;2023-07-20T05:27:24;96709.25;;;18.91;100.00
6829;BME280;17930;48.592;8.868;2023-07-20T05:29:52;96709.38;;;18.95;100.00
6829;BME280;17930;48.592;8.868;2023-07-20T05:32:18;96707.31;;;19.00;100.00
6829;BME280;17930;48.592;8.868;2023-07-20T05:34:45;96707.84;;;19.14;100.00
6829;BME280;17930;48.592;8.868;2023-07-20T05:37:12;96713.31;;;19.41;100.00
6829;BME280;17930;48.592;8.868;2023-07-20T05:39:38;96707.00;;;19.34;100.00
6829;BME280;17930;48.592;8.868;2023-07-20T05:42:05;96702.41;;;19.54;100.00
6829;BME280;17930;48.592;8.868;2023-07-20T05:44:32;96701.97;;;19.64;100.00
6829;BME280;17930;48.592;8.868;2023-07-20T05:47:00;96704.16;;;19.39;100.00
6829;BME280;17930;48.592;8.868;2023-07-20T05:49:28;96703.06;;;19.52;100.00
6829;BME280;17930;48.592;8.868;2023-07-20T05:51:55;96693.41;;;19.91;100.00
6829;BME280;17930;48.592;8.868;2023-07-20T05:54:23;96706.41;;;19.84;100.00
6829;BME280;17930;48.592;8.868;2023-07-20T05:56:50;96701.31;;;20.27;100.00
6829;BME280;17930;48.592;8.868;2023-07-20T05:59:17;96703.84;;;20.47;100.00
6829;BME280;17930;48.592;8.868;2023-07-20T06:01:44;96707.38;;;20.39;100.00
6829;BME280;17930;48.592;8.868;2023-07-20T06:04:14;96710.59;;;20.21;100.00
6829;BME280;17930;48.592;8.868;2023-07-20T06:06:40;96716.13;;;20.28;100.00
6829;BME280;17930;48.592;8.868;2023-07-20T06:09:07;96711.47;;;20.37;100.00
6829;BME280;17930;48.592;8.868;2023-07-20T06:11:37;96718.16;;;20.70;100.00
6829;BME280;17930;48.592;8.868;2023-07-20T06:14:04;96715.97;;;20.60;100.00
6829;BME280;17930;48.592;8.868;2023-07-20T06:16:30;96713.66;;;20.47;100.00
6829;BME280;17930;48.592;8.868;2023-07-20T06:19:00;96713.50;;;20.67;100.00
6829;BME280;17930;48.592;8.868;2023-07-20T06:21:28;96711.53;;;20.64;100.00
6829;BME280;17930;48.592;8.868;2023-07-20T06:23:54;96713.00;;;20.89;100.00
6829;BME280;17930;48.592;8.868;2023-07-20T06:26:21;96706.13;;;21.00;100.00
6829;BME280;17930;48.592;8.868;2023-07-20T06:28:48;96703.94;;;21.60;100.00
6829;BME280;17930;48.592;8.868;2023-07-20T06:31:14;96703.25;;;21.78;100.00
6829;BME280;17930;48.592;8.868;2023-07-20T06:33:41;96701.81;;;21.80;100.00
6829;BME280;17930;48.592;8.868;2023-07-20T06:36:08;96702.41;;;21.59;100.00
6829;BME280;17930;48.592;8.868;2023-07-20T06:38:36;96701.03;;;21.64;100.00
6829;BME280;17930;48.592;8.868;2023-07-20T06:41:03;96701.97;;;21.14;100.00
6829;BME280;17930;48.592;8.868;2023-07-20T06:43:29;96705.09;;;21.04;100.00
6829;BME280;17930;48.592;8.868;2023-07-20T06:45:56;96697.09;;;21.31;100.00
6829;BME280;17930;48.592;8.868;2023-07-20T06:48:23;96706.69;;;21.48;100.00
6829;BME280;17930;48.592;8.868;2023-07-20T06:50:49;96704.03;;;21.20;100.00
6829;BME280;17930;48.592;8.868;2023-07-20T06:53:16;96704.06;;;21.36;100.00
6829;BME280;17930;48.592;8.868;2023-07-20T06:55:44;96705.22;;;21.23;100.00
6829;BME280;17930;48.592;8.868;2023-07-20T06:58:11;96713.06;;;21.47;100.00
6829;BME280;17930;48.592;8.868;2023-07-20T07:00:38;96700.53;;;21.74;100.00
6829;BME280;17930;48.592;8.868;2023-07-20T07:03:05;96706.28;;;21.34;100.00
6829;BME280;17930;48.592;8.868;2023-07-20T07:05:35;96710.41;;;21.47;100.00
6829;BME280;17930;48.592;8.868;2023-07-20T07:08:02;96700.34;;;21.52;100.00
6829;BME280;17930;48.592;8.868;2023-07-20T07:10:29;96708.56;;;22.24;100.00
6829;BME280;17930;48.592;8.868;2023-07-20T07:12:57;96697.06;;;22.54;100.00
6829;BME280;17930;48.592;8.868;2023-07-20T07:15:24;96691.69;;;22.88;100.00
6829;BME280;17930;48.592;8.868;2023-07-20T07:17:51;96690.28;;;22.75;100.00
6829;BME280;17930;48.592;8.868;2023-07-20T07:20:17;96687.38;;;23.63;100.00
6829;BME280;17930;48.592;8.868;2023-07-20T07:22:44;96690.31;;;23.76;100.00
6829;BME280;17930;48.592;8.868;2023-07-20T07:25:12;96683.47;;;24.27;100.00
6829;BME280;17930;48.592;8.868;2023-07-20T07:27:38;96678.72;;;24.69;100.00
6829;BME280;17930;48.592;8.868;2023-07-20T07:30:07;96683.66;;;25.32;100.00
6829;BME280;17930;48.592;8.868;2023-07-20T07:32:34;96679.72;;;25.59;100.00
6829;BME280;17930;48.592;8.868;2023-07-20T07:35:00;96676.13;;;25.80;100.00
6829;BME280;17930;48.592;8.868;2023-07-20T07:37:27;96683.97;;;24.62;100.00
6829;BME280;17930;48.592;8.868;2023-07-20T07:39:54;96676.13;;;25.80;100.00
6829;BME280;17930;48.592;8.868;2023-07-20T07:42:21;96673.38;;;25.34;100.00
6829;BME280;17930;48.592;8.868;2023-07-20T07:44:47;96678.63;;;24.62;100.00
6829;BME280;17930;48.592;8.868;2023-07-20T07:47:16;96684.19;;;24.50;100.00
6829;BME280;17930;48.592;8.868;2023-07-20T07:49:42;96676.81;;;24.14;100.00
6829;BME280;17930;48.592;8.868;2023-07-20T07:52:09;96671.78;;;24.09;100.00
6829;BME280;17930;48.592;8.868;2023-07-20T07:54:36;96674.97;;;24.44;100.00
6829;BME280;17930;48.592;8.868;2023-07-20T07:57:03;96674.03;;;24.91;100.00
6829;BME280;17930;48.592;8.868;2023-07-20T07:59:29;96671.13;;;25.79;97.58
6829;BME280;17930;48.592;8.868;2023-07-20T08:02:02;96660.13;;;26.41;96.22
6829;BME280;17930;48.592;8.868;2023-07-20T08:04:30;96664.75;;;26.51;88.79
6829;BME280;17930;48.592;8.868;2023-07-20T08:06:57;96668.09;;;25.41;92.66
6829;BME280;17930;48.592;8.868;2023-07-20T08:09:24;96658.72;;;25.61;89.23
6829;BME280;17930;48.592;8.868;2023-07-20T08:11:51;96661.78;;;25.59;93.08
6829;BME280;17930;48.592;8.868;2023-07-20T08:14:17;96661.06;;;26.12;89.84
6829;BME280;17930;48.592;8.868;2023-07-20T08:16:44;96664.22;;;25.31;90.11
6829;BME280;17930;48.592;8.868;2023-07-20T08:19:11;96667.56;;;23.82;95.23
6829;BME280;17930;48.592;8.868;2023-07-20T08:21:39;96674.59;;;23.71;100.00
6829;BME280;17930;48.592;8.868;2023-07-20T08:24:06;96664.25;;;24.15;99.58
6829;BME280;17930;48.592;8.868;2023-07-20T08:26:33;96666.16;;;24.40;97.97
6829;BME280;17930;48.592;8.868;2023-07-20T08:28:59;96664.38;;;24.25;99.41
6829;BME280;17930;48.592;8.868;2023-07-20T08:31:26;96666.94;;;24.18;100.00
6829;BME280;17930;48.592;8.868;2023-07-20T08:33:53;96669.44;;;24.33;100.00
6829;BME280;17930;48.592;8.868;2023-07-20T08:36:22;96670.75;;;24.43;99.34
6829;BME280;17930;48.592;8.868;2023-07-20T08:38:50;96670.13;;;24.53;97.89
6829;BME280;17930;48.592;8.868;2023-07-20T08:41:17;96669.63;;;25.38;91.10
6829;BME280;17930;48.592;8.868;2023-07-20T08:43:46;96663.34;;;25.64;83.88
6829;BME280;17930;48.592;8.868;2023-07-20T08:46:13;96663.03;;;24.96;86.92
6829;BME280;17930;48.592;8.868;2023-07-20T08:48:41;96668.09;;;24.17;90.55
6829;BME280;17930;48.592;8.868;2023-07-20T08:51:09;96671.88;;;23.90;96.08
6829;BME280;17930;48.592;8.868;2023-07-20T08:53:38;96658.06;;;25.71;88.06
6829;BME280;17930;48.592;8.868;2023-07-20T08:56:06;96643.22;;;27.08;76.88
6829;BME280;17930;48.592;8.868;2023-07-20T08:58:36;96656.78;;;26.54;70.40
6829;BME280;17930;48.592;8.868;2023-07-20T09:01:04;96655.34;;;25.24;72.48
6829;BME280;17930;48.592;8.868;2023-07-20T09:03:31;96652.88;;;24.76;75.25
6829;BME280;17930;48.592;8.868;2023-07-20T09:05:58;96660.97;;;24.83;78.84
6829;BME280;17930;48.592;8.868;2023-07-20T09:08:25;96657.50;;;25.94;71.15
6829;BME280;17930;48.592;8.868;2023-07-20T09:10:52;96643.13;;;26.90;66.37
6829;BME280;17930;48.592;8.868;2023-07-20T09:13:20;96644.63;;;26.84;64.84
6829;BME280;17930;48.592;8.868;2023-07-20T09:15:47;96644.00;;;27.19;62.83
6829;BME280;17930;48.592;8.868;2023-07-20T09:18:25;96643.31;;;27.74;60.96
6829;BME280;17930;48.592;8.868;2023-07-20T09:20:52;96639.84;;;27.77;61.19
6829;BME280;17930;48.592;8.868;2023-07-20T09:23:19;96635.25;;;27.60;60.31
6829;BME280;17930;48.592;8.868;2023-07-20T09:25:47;96637.56;;;27.65;59.90
6829;BME280;17930;48.592;8.868;2023-07-20T09:28:16;96636.03;;;27.81;61.36
6829;BME280;17930;48.592;8.868;2023-07-20T09:30:44;96638.69;;;28.16;58.01
6829;BME280;17930;48.592;8.868;2023-07-20T09:33:18;96661.06;;;26.12;61.96
6829;BME280;17930;48.592;8.868;2023-07-20T09:35:46;96663.31;;;24.88;66.32
6829;BME280;17930;48.592;8.868;2023-07-20T09:38:14;96655.25;;;24.26;67.24
6829;BME280;17930;48.592;8.868;2023-07-20T09:40:41;96644.34;;;25.29;64.73
6829;BME280;17930;48.592;8.868;2023-07-20T09:43:09;96639.16;;;26.53;62.97
6829;BME280;17930;48.592;8.868;2023-07-20T09:45:39;96624.00;;;26.88;60.70
6829;BME280;17930;48.592;8.868;2023-07-20T09:48:08;96621.09;;;27.80;58.81
6829;BME280;17930;48.592;8.868;2023-07-20T09:50:39;96627.81;;;28.68;57.60
6829;BME280;17930;48.592;8.868;2023-07-20T09:53:06;96627.44;;;28.59;55.74
6829;BME280;17930;48.592;8.868;2023-07-20T09:55:34;96635.63;;;28.17;56.96
6829;BME280;17930;48.592;8.868;2023-07-20T09:58:02;96623.38;;;28.13;55.76
6829;BME280;17930;48.592;8.868;2023-07-20T10:00:29;96632.56;;;27.53;57.08
6829;BME280;17930;48.592;8.868;2023-07-20T10:02:56;96627.19;;;28.01;56.13
6829;BME280;17930;48.592;8.868;2023-07-20T10:05:24;96606.50;;;29.11;50.97
6829;BME280;17930;48.592;8.868;2023-07-20T10:07:55;96609.31;;;28.91;51.10
6829;BME280;17930;48.592;8.868;2023-07-20T10:10:22;96618.25;;;28.53;51.83
6829;BME280;17930;48.592;8.868;2023-07-20T10:12:49;96616.25;;;28.81;51.63
6829;BME280;17930;48.592;8.868;2023-07-20T10:15:20;96614.09;;;26.92;53.40
6829;BME280;17930;48.592;8.868;2023-07-20T10:17:57;96602.53;;;26.78;55.49
6829;BME280;17930;48.592;8.868;2023-07-20T10:20:27;96594.44;;;28.69;52.31
6829;BME280;17930;48.592;8.868;2023-07-20T10:22:55;96599.47;;;29.82;50.33
6829;BME280;17930;48.592;8.868;2023-07-20T10:25:23;96593.00;;;30.12;49.55
6829;BME280;17930;48.592;8.868;2023-07-20T10:27:51;96595.16;;;30.61;47.24
6829;BME280;17930;48.592;8.868;2023-07-20T10:30:18;96588.91;;;30.01;46.63
6829;BME280;17930;48.592;8.868;2023-07-20T10:32:46;96594.81;;;29.86;47.23
6829;BME280;17930;48.592;8.868;2023-07-20T10:35:13;96584.81;;;29.39;47.41
6829;BME280;17930;48.592;8.868;2023-07-20T10:37:53;96586.41;;;30.17;47.97
6829;BME280;17930;48.592;8.868;2023-07-20T10:40:25;96592.44;;;30.64;46.00
6829;BME280;17930;48.592;8.868;2023-07-20T10:42:51;96578.56;;;30.96;45.93
6829;BME280;17930;48.592;8.868;2023-07-20T10:45:19;96567.06;;;31.44;46.61
6829;BME280;17930;48.592;8.868;2023-07-20T10:47:46;96563.59;;;31.89;47.25
6829;BME280;17930;48.592;8.868;2023-07-20T10:50:12;96566.25;;;33.09;44.94
6829;BME280;17930;48.592;8.868;2023-07-20T10:52:40;96562.53;;;33.03;43.09
6829;BME280;17930;48.592;8.868;2023-07-20T10:55:14;96561.94;;;31.95;43.37
6829;BME280;17930;48.592;8.868;2023-07-20T10:57:41;96562.44;;;31.41;45.63
6829;BME280;17930;48.592;8.868;2023-07-20T11:00:09;96565.75;;;31.29;44.13
6829;BME280;17930;48.592;8.868;2023-07-20T11:02:44;96567.47;;;29.91;43.47
6829;BME280;17930;48.592;8.868;2023-07-20T11:05:33;96555.13;;;30.63;43.22
6829;BME280;17930;48.592;8.868;2023-07-20T11:08:01;96555.88;;;30.30;44.08
6829;BME280;17930;48.592;8.868;2023-07-20T11:10:30;96565.91;;;30.89;44.77
6829;BME280;17930;48.592;8.868;2023-07-20T11:13:16;96562.03;;;30.94;44.66
6829;BME280;17930;48.592;8.868;2023-07-20T11:15:47;96565.34;;;30.08;46.45
6829;BME280;17930;48.592;8.868;2023-07-20T11:18:14;96577.31;;;30.44;46.84
6829;BME280;17930;48.592;8.868;2023-07-20T11:20:41;96573.66;;;31.43;45.99
6829;BME280;17930;48.592;8.868;2023-07-20T11:23:09;96562.19;;;32.23;46.10
6829;BME280;17930;48.592;8.868;2023-07-20T11:25:40;96553.28;;;33.00;44.15
6829;BME280;17930;48.592;8.868;2023-07-20T11:28:07;96556.63;;;33.71;39.73
6829;BME280;17930;48.592;8.868;2023-07-20T11:30:34;96537.38;;;35.65;38.80
6829;BME280;17930;48.592;8.868;2023-07-20T11:33:01;96540.00;;;32.55;39.98
6829;BME280;17930;48.592;8.868;2023-07-20T11:35:28;96530.41;;;34.12;40.91
6829;BME280;17930;48.592;8.868;2023-07-20T11:37:54;96502.59;;;34.36;39.54
6829;BME280;17930;48.592;8.868;2023-07-20T11:40:22;96527.50;;;31.80;41.69
6829;BME280;17930;48.592;8.868;2023-07-20T11:42:50;96540.75;;;29.23;46.08
6829;BME280;17930;48.592;8.868;2023-07-20T11:45:18;96552.34;;;30.03;45.98
6829;BME280;17930;48.592;8.868;2023-07-20T11:47:45;96541.78;;;31.58;43.54
6829;BME280;17930;48.592;8.868;2023-07-20T11:50:12;96541.06;;;31.31;41.77
6829;BME280;17930;48.592;8.868;2023-07-20T11:52:40;96536.50;;;30.42;43.85
6829;BME280;17930;48.592;8.868;2023-07-20T11:55:07;96527.25;;;30.73;44.16
6829;BME280;17930;48.592;8.868;2023-07-20T11:57:34;96530.72;;;29.27;45.59
6829;BME280;17930;48.592;8.868;2023-07-20T12:00:03;96536.63;;;28.33;48.10
6829;BME280;17930;48.592;8.868;2023-07-20T12:02:34;96533.63;;;30.86;45.12
6829;BME280;17930;48.592;8.868;2023-07-20T12:05:02;96520.84;;;32.81;43.21
6829;BME280;17930;48.592;8.868;2023-07-20T12:07:29;96511.81;;;35.04;39.92
6829;BME280;17930;48.592;8.868;2023-07-20T12:10:03;96522.16;;;34.16;38.94
6829;BME280;17930;48.592;8.868;2023-07-20T12:12:31;96515.84;;;31.41;41.08
6829;BME280;17930;48.592;8.868;2023-07-20T12:15:15;96513.91;;;30.00;44.01
6829;BME280;17930;48.592;8.868;2023-07-20T12:17:43;96509.69;;;29.99;42.95
6829;BME280;17930;48.592;8.868;2023-07-20T12:20:10;96497.41;;;31.13;42.37
6829;BME280;17930;48.592;8.868;2023-07-20T12:22:39;96506.59;;;31.84;40.46
6829;BME280;17930;48.592;8.868;2023-07-20T12:25:06;96506.38;;;31.07;41.59
6829;BME280;17930;48.592;8.868;2023-07-20T12:27:35;96502.44;;;31.60;40.62
6829;BME280;17930;48.592;8.868;2023-07-20T12:30:03;96494.41;;;31.76;41.18
6829;BME280;17930;48.592;8.868;2023-07-20T12:32:32;96487.00;;;32.57;40.99
6829;BME280;17930;48.592;8.868;2023-07-20T12:34:59;96497.19;;;32.69;40.59
6829;BME280;17930;48.592;8.868;2023-07-20T12:37:26;96488.88;;;30.36;42.66
6829;BME280;17930;48.592;8.868;2023-07-20T12:39:53;96477.13;;;32.31;41.47
6829;BME280;17930;48.592;8.868;2023-07-20T12:42:20;96476.72;;;32.68;41.27
6829;BME280;17930;48.592;8.868;2023-07-20T12:44:48;96475.88;;;33.66;41.18
6829;BME280;17930;48.592;8.868;2023-07-20T12:47:16;96478.31;;;32.11;39.97
6829;BME280;17930;48.592;8.868;2023-07-20T12:49:44;96474.59;;;31.40;41.94
6829;BME280;17930;48.592;8.868;2023-07-20T12:52:12;96472.28;;;31.84;40.96
6829;BME280;17930;48.592;8.868;2023-07-20T12:54:38;96465.72;;;31.43;42.62
6829;BME280;17930;48.592;8.868;2023-07-20T12:57:06;96471.19;;;33.38;40.22
6829;BME280;17930;48.592;8.868;2023-07-20T12:59:32;96468.63;;;34.20;39.33
6829;BME280;17930;48.592;8.868;2023-07-20T13:02:00;96466.06;;;35.40;37.67
6829;BME280;17930;48.592;8.868;2023-07-20T13:04:27;96471.63;;;33.81;37.49
6829;BME280;17930;48.592;8.868;2023-07-20T13:06:55;96461.56;;;35.00;36.88
6829;BME280;17930;48.592;8.868;2023-07-20T13:09:24;96452.59;;;33.24;38.67
6829;BME280;17930;48.592;8.868;2023-07-20T13:11:50;96450.94;;;32.09;40.22